Terminal Aerodrome Forecast
Issued by NWS

Current Version | Previous Version | Text Only | Print | Product List | Glossary On
Versions: 1 2 3 4 5 6 7 8 9 10 11 12 13 14 15 16 17 18 19 20
000
FTUS41 KILN 282300 RRA
TAFLCK
TAF
KLCK 282341Z 2900/2924 15005KT P6SM BKN120
     FM291400 18012KT P6SM BKN040
     FM291700 19012G22KT P6SM OVC025
     FM292200 19012KT P6SM -SHRA SCT008 OVC012=

USA.gov is the U.S. government's official web portal to all federal, state and local government web resources and services.